| Back to River Map | <<< Previous Forecast Point | | | Next Forecast Point >>> | Printer Version | Graph Version |  |
|
KERN RIVER - KERNVILLE (KRVC1)
| Latitude: 35.75º N | Longitude: 118.42º W | Elevation: 2637 Feet | | Forecast Type: Official Location |
| Location: Kern County in California | Bulletin Group: San Joaquin | River Group: Tulare |
| Issuance Time: | Sep 05 2026 at 6:41 AM PDT | Next Issuance: | Sep 06 2026 at 9:00 AM PDT
| |
| Action: 12.5 Feet | Minor Flood: 13.5 Feet | Moderate Flood: 17.0 Feet | Major Flood: 20.0 Feet |
# Tabular Observed and Forecast Hydrograph Information
#
# Location: Kern River - Kernville (KRVC1)
#
# File Generation Time: 09/05/2026 at 06:41 AM PDT
# Data Interval: 1 Hour
#
# Most Recent Date & Time of Maximum Observed: 09/01/2026 at 05:00 PM PDT
# Maximum Observed Stage: 2.64 Feet
# Maximum Observed Flow: 181 cfs
#
# Earliest Date & Time of Maximum Forecast: 09/05/2026 at 04:00 PM PDT
# Maximum Forecast Stage: 2.54 Feet
# Maximum Forecast Flow: 149 cfs
#
# OBSERVED
#
# Date & Time (Local) Stage (Feet) Flow (cfs) Trend Observed Status
# ---------------------------------------------------------------------------------
08/31/2026 06 AM PDT 2.60 167 Normal
08/31/2026 07 AM PDT 2.58 161 - Normal
08/31/2026 08 AM PDT 2.56 155 - Normal
08/31/2026 09 AM PDT 2.56 155 0 Normal
08/31/2026 10 AM PDT 2.56 155 0 Normal
08/31/2026 11 AM PDT 2.58 161 + Normal
08/31/2026 12 PM PDT 2.59 164 + Normal
08/31/2026 01 PM PDT 2.57 158 - Normal
08/31/2026 02 PM PDT 2.55 152 - Normal
08/31/2026 03 PM PDT 2.54 149 - Normal
08/31/2026 04 PM PDT 2.54 149 0 Normal
08/31/2026 05 PM PDT 2.54 149 0 Normal
08/31/2026 06 PM PDT 2.54 149 0 Normal
08/31/2026 07 PM PDT 2.54 149 0 Normal
08/31/2026 08 PM PDT 2.52 143 - Normal
08/31/2026 09 PM PDT 2.52 143 0 Normal
08/31/2026 10 PM PDT 2.53 146 + Normal
08/31/2026 11 PM PDT 2.55 152 + Normal
09/01/2026 12 AM PDT 2.54 149 - Normal
09/01/2026 01 AM PDT 2.54 149 0 Normal
09/01/2026 02 AM PDT 2.52 143 - Normal
09/01/2026 03 AM PDT 2.50 138 - Normal
09/01/2026 04 AM PDT 2.51 141 + Normal
09/01/2026 05 AM PDT 2.51 141 0 Normal
09/01/2026 06 AM PDT 2.52 143 + Normal
09/01/2026 07 AM PDT 2.55 152 + Normal
09/01/2026 08 AM PDT 2.55 152 0 Normal
09/01/2026 09 AM PDT 2.53 146 - Normal
09/01/2026 10 AM PDT 2.51 141 - Normal
09/01/2026 11 AM PDT 2.58 161 + Normal
09/01/2026 12 PM PDT 2.60 167 + Normal
09/01/2026 01 PM PDT 2.61 170 + Normal
09/01/2026 02 PM PDT 2.62 174 + Normal
09/01/2026 03 PM PDT 2.64 181 + Normal
09/01/2026 04 PM PDT 2.64 181 0 Normal
09/01/2026 05 PM PDT 2.64 181 0 Normal
09/01/2026 06 PM PDT 2.61 170 - Normal
09/01/2026 07 PM PDT 2.56 155 - Normal
09/01/2026 08 PM PDT 2.53 146 - Normal
09/01/2026 09 PM PDT 2.51 141 - Normal
09/01/2026 10 PM PDT 2.51 141 0 Normal
09/01/2026 11 PM PDT 2.50 138 - Normal
09/02/2026 12 AM PDT 2.51 141 + Normal
09/02/2026 01 AM PDT 2.51 141 0 Normal
09/02/2026 02 AM PDT 2.51 141 0 Normal
09/02/2026 03 AM PDT 2.53 146 + Normal
09/02/2026 04 AM PDT 2.53 146 0 Normal
09/02/2026 05 AM PDT 2.54 149 + Normal
09/02/2026 06 AM PDT 2.53 146 - Normal
09/02/2026 07 AM PDT 2.52 143 - Normal
09/02/2026 08 AM PDT 2.52 143 0 Normal
09/02/2026 09 AM PDT 2.52 143 0 Normal
09/02/2026 10 AM PDT 2.52 143 0 Normal
09/02/2026 11 AM PDT 2.50 138 - Normal
09/02/2026 12 PM PDT 2.53 146 + Normal
09/02/2026 01 PM PDT 2.53 146 0 Normal
09/02/2026 02 PM PDT 2.54 149 + Normal
09/02/2026 03 PM PDT 2.52 143 - Normal
09/02/2026 04 PM PDT 2.51 141 - Normal
09/02/2026 05 PM PDT 2.51 141 0 Normal
09/02/2026 06 PM PDT 2.50 138 - Normal
09/02/2026 07 PM PDT 2.49 135 - Normal
09/02/2026 08 PM PDT 2.49 135 0 Normal
09/02/2026 09 PM PDT 2.50 138 + Normal
09/02/2026 10 PM PDT 2.51 141 + Normal
09/02/2026 11 PM PDT 2.51 141 0 Normal
09/03/2026 12 AM PDT 2.50 138 - Normal
09/03/2026 01 AM PDT 2.49 135 - Normal
09/03/2026 02 AM PDT 2.49 135 0 Normal
09/03/2026 03 AM PDT 2.49 135 0 Normal
09/03/2026 04 AM PDT 2.51 141 + Normal
09/03/2026 05 AM PDT 2.52 143 + Normal
09/03/2026 06 AM PDT 2.55 152 + Normal
09/03/2026 07 AM PDT 2.55 152 0 Normal
09/03/2026 08 AM PDT 2.53 146 - Normal
09/03/2026 09 AM PDT 2.50 138 - Normal
09/03/2026 10 AM PDT 2.52 143 + Normal
09/03/2026 11 AM PDT 2.53 146 + Normal
09/03/2026 12 PM PDT 2.52 143 - Normal
09/03/2026 01 PM PDT 2.53 146 + Normal
09/03/2026 02 PM PDT 2.52 143 - Normal
09/03/2026 03 PM PDT 2.51 141 - Normal
09/03/2026 04 PM PDT 2.55 152 + Normal
09/03/2026 05 PM PDT 2.53 146 - Normal
09/03/2026 06 PM PDT 2.52 143 - Normal
09/03/2026 07 PM PDT 2.51 141 - Normal
09/03/2026 08 PM PDT 2.50 138 - Normal
09/03/2026 09 PM PDT 2.51 141 + Normal
09/03/2026 10 PM PDT 2.54 149 + Normal
09/03/2026 11 PM PDT 2.51 141 - Normal
09/04/2026 12 AM PDT 2.50 138 - Normal
09/04/2026 01 AM PDT 2.51 141 + Normal
09/04/2026 02 AM PDT 2.54 149 + Normal
09/04/2026 03 AM PDT 2.53 146 - Normal
09/04/2026 04 AM PDT 2.52 143 - Normal
09/04/2026 05 AM PDT 2.52 143 0 Normal
09/04/2026 06 AM PDT 2.51 141 - Normal
09/04/2026 07 AM PDT 2.53 146 + Normal
09/04/2026 08 AM PDT 2.55 152 + Normal
09/04/2026 09 AM PDT 2.55 152 0 Normal
09/04/2026 10 AM PDT 2.51 141 - Normal
09/04/2026 11 AM PDT 2.53 146 + Normal
09/04/2026 12 PM PDT 2.54 149 + Normal
09/04/2026 01 PM PDT 2.54 149 0 Normal
09/04/2026 02 PM PDT 2.53 146 - Normal
09/04/2026 03 PM PDT 2.52 143 - Normal
09/04/2026 04 PM PDT 2.51 141 - Normal
09/04/2026 05 PM PDT 2.52 143 + Normal
09/04/2026 06 PM PDT 2.53 146 + Normal
09/04/2026 07 PM PDT 2.54 149 + Normal
09/04/2026 08 PM PDT 2.51 141 - Normal
09/04/2026 09 PM PDT 2.51 141 0 Normal
09/04/2026 10 PM PDT 2.50 138 - Normal
09/04/2026 11 PM PDT 2.50 138 0 Normal
09/05/2026 12 AM PDT 2.53 146 + Normal
09/05/2026 01 AM PDT 2.52 143 - Normal
09/05/2026 02 AM PDT 2.51 141 - Normal
09/05/2026 03 AM PDT 2.53 146 + Normal
09/05/2026 04 AM PDT 2.55 152 + Normal
09/05/2026 05 AM PDT 2.52 143 - Normal
09/05/2026 06 AM PDT 2.52 143 0 Normal
#
# FORECAST
#
# Date & Time (Local) Stage (Feet) Flow (cfs) Trend Forecast Status
# ---------------------------------------------------------------------------------
09/05/2026 07 AM PDT 2.52 143 Normal
09/05/2026 08 AM PDT 2.52 143 0 Normal
09/05/2026 09 AM PDT 2.52 143 0 Normal
09/05/2026 10 AM PDT 2.53 146 + Normal
09/05/2026 11 AM PDT 2.53 146 0 Normal
09/05/2026 12 PM PDT 2.53 146 0 Normal
09/05/2026 01 PM PDT 2.53 146 0 Normal
09/05/2026 02 PM PDT 2.53 146 0 Normal
09/05/2026 03 PM PDT 2.53 146 0 Normal
09/05/2026 04 PM PDT 2.54 149 + Normal
09/05/2026 05 PM PDT 2.54 149 0 Normal
09/05/2026 06 PM PDT 2.54 149 0 Normal
09/05/2026 07 PM PDT 2.54 149 0 Normal
09/05/2026 08 PM PDT 2.54 149 0 Normal
09/05/2026 09 PM PDT 2.54 149 0 Normal
09/05/2026 10 PM PDT 2.54 149 0 Normal
09/05/2026 11 PM PDT 2.54 149 0 Normal
09/06/2026 12 AM PDT 2.53 146 - Normal
09/06/2026 01 AM PDT 2.53 146 0 Normal
09/06/2026 02 AM PDT 2.53 146 0 Normal
09/06/2026 03 AM PDT 2.53 146 0 Normal
09/06/2026 04 AM PDT 2.53 146 0 Normal
09/06/2026 05 AM PDT 2.53 146 0 Normal
09/06/2026 06 AM PDT 2.53 146 0 Normal
09/06/2026 07 AM PDT 2.53 146 0 Normal
09/06/2026 08 AM PDT 2.53 146 0 Normal
09/06/2026 09 AM PDT 2.53 146 0 Normal
09/06/2026 10 AM PDT 2.53 146 0 Normal
09/06/2026 11 AM PDT 2.53 146 0 Normal
09/06/2026 12 PM PDT 2.53 146 0 Normal
09/06/2026 01 PM PDT 2.53 146 0 Normal
09/06/2026 02 PM PDT 2.53 146 0 Normal
09/06/2026 03 PM PDT 2.53 146 0 Normal
09/06/2026 04 PM PDT 2.53 146 0 Normal
09/06/2026 05 PM PDT 2.53 146 0 Normal
09/06/2026 06 PM PDT 2.53 146 0 Normal
09/06/2026 07 PM PDT 2.53 146 0 Normal
09/06/2026 08 PM PDT 2.53 146 0 Normal
09/06/2026 09 PM PDT 2.53 146 0 Normal
09/06/2026 10 PM PDT 2.53 146 0 Normal
09/06/2026 11 PM PDT 2.53 146 0 Normal
09/07/2026 12 AM PDT 2.53 146 0 Normal
09/07/2026 01 AM PDT 2.53 146 0 Normal
09/07/2026 02 AM PDT 2.53 146 0 Normal
09/07/2026 03 AM PDT 2.53 146 0 Normal
09/07/2026 04 AM PDT 2.53 146 0 Normal
09/07/2026 05 AM PDT 2.53 146 0 Normal
09/07/2026 06 AM PDT 2.53 146 0 Normal
09/07/2026 07 AM PDT 2.53 146 0 Normal
09/07/2026 08 AM PDT 2.53 146 0 Normal
09/07/2026 09 AM PDT 2.53 146 0 Normal
09/07/2026 10 AM PDT 2.53 146 0 Normal
09/07/2026 11 AM PDT 2.53 146 0 Normal
09/07/2026 12 PM PDT 2.53 146 0 Normal
09/07/2026 01 PM PDT 2.53 146 0 Normal
09/07/2026 02 PM PDT 2.53 146 0 Normal
09/07/2026 03 PM PDT 2.53 146 0 Normal
09/07/2026 04 PM PDT 2.53 146 0 Normal
09/07/2026 05 PM PDT 2.53 146 0 Normal
09/07/2026 06 PM PDT 2.53 146 0 Normal
09/07/2026 07 PM PDT 2.53 146 0 Normal
09/07/2026 08 PM PDT 2.53 146 0 Normal
09/07/2026 09 PM PDT 2.53 146 0 Normal
09/07/2026 10 PM PDT 2.53 146 0 Normal
09/07/2026 11 PM PDT 2.53 146 0 Normal
09/08/2026 12 AM PDT 2.53 146 0 Normal
09/08/2026 01 AM PDT 2.53 146 0 Normal
09/08/2026 02 AM PDT 2.53 146 0 Normal
09/08/2026 03 AM PDT 2.53 146 0 Normal
09/08/2026 04 AM PDT 2.53 146 0 Normal
09/08/2026 05 AM PDT 2.53 146 0 Normal
09/08/2026 06 AM PDT 2.53 146 0 Normal
09/08/2026 07 AM PDT 2.53 146 0 Normal
09/08/2026 08 AM PDT 2.53 146 0 Normal
09/08/2026 09 AM PDT 2.53 146 0 Normal
09/08/2026 10 AM PDT 2.53 146 0 Normal
09/08/2026 11 AM PDT 2.52 143 - Normal
09/08/2026 12 PM PDT 2.52 143 0 Normal
09/08/2026 01 PM PDT 2.52 143 0 Normal
09/08/2026 02 PM PDT 2.52 143 0 Normal
09/08/2026 03 PM PDT 2.52 143 0 Normal
09/08/2026 04 PM PDT 2.52 143 0 Normal
09/08/2026 05 PM PDT 2.52 143 0 Normal
09/08/2026 06 PM PDT 2.52 143 0 Normal
09/08/2026 07 PM PDT 2.52 143 0 Normal
09/08/2026 08 PM PDT 2.52 143 0 Normal
09/08/2026 09 PM PDT 2.52 143 0 Normal
09/08/2026 10 PM PDT 2.52 143 0 Normal
09/08/2026 11 PM PDT 2.52 143 0 Normal
09/09/2026 12 AM PDT 2.52 143 0 Normal
09/09/2026 01 AM PDT 2.52 143 0 Normal
09/09/2026 02 AM PDT 2.52 143 0 Normal
09/09/2026 03 AM PDT 2.52 143 0 Normal
09/09/2026 04 AM PDT 2.52 143 0 Normal
09/09/2026 05 AM PDT 2.52 143 0 Normal
09/09/2026 06 AM PDT 2.52 143 0 Normal
09/09/2026 07 AM PDT 2.52 143 0 Normal
09/09/2026 08 AM PDT 2.52 143 0 Normal
09/09/2026 09 AM PDT 2.52 143 0 Normal
09/09/2026 10 AM PDT 2.52 143 0 Normal
09/09/2026 11 AM PDT 2.52 143 0 Normal
09/09/2026 12 PM PDT 2.52 143 0 Normal
09/09/2026 01 PM PDT 2.52 143 0 Normal
09/09/2026 02 PM PDT 2.52 143 0 Normal
09/09/2026 03 PM PDT 2.52 143 0 Normal
09/09/2026 04 PM PDT 2.52 143 0 Normal
09/09/2026 05 PM PDT 2.52 143 0 Normal
09/09/2026 06 PM PDT 2.52 143 0 Normal
09/09/2026 07 PM PDT 2.52 143 0 Normal
09/09/2026 08 PM PDT 2.52 143 0 Normal
09/09/2026 09 PM PDT 2.52 143 0 Normal
09/09/2026 10 PM PDT 2.52 143 0 Normal
09/09/2026 11 PM PDT 2.52 143 0 Normal
09/10/2026 12 AM PDT 2.52 143 0 Normal
09/10/2026 01 AM PDT 2.52 143 0 Normal
09/10/2026 02 AM PDT 2.52 143 0 Normal
09/10/2026 03 AM PDT 2.52 143 0 Normal
09/10/2026 04 AM PDT 2.52 143 0 Normal
09/10/2026 05 AM PDT 2.52 143 0 Normal
#
# NOTE 1: Stages are rounded to the nearest hundredth (.01) of a foot.
# NOTE 2: Flows are rounded to the nearest (1) cfs.
# NOTE 3: Trends are determined using hourly change in unrounded stage and flow.
# NOTE 4: Maximum Values are determined using unrounded stage and flow.
|